Time;durP1;ratioP1;P1;durP2;ratioP2;P2;SDS_P1;SDS_P2;PMS_P1;PMS_P2;Temp;Humidity;BMP_temperature;BMP_pressure;BME280_temperature;BME280_humidity;BME280_pressure;Samples;Min_cycle;Max_cycle;Signal;HPM_P1;HPM_P2
2023/07/04 00:01:14;;;;;;;17.73;4.63;;;17.10;99.90;;;;;;5053617;28;20224;-67
2023/07/04 00:03:41;;;;;;;13.25;3.95;;;17.10;99.90;;;;;;5053858;28;20536;-67
2023/07/04 00:06:10;;;;;;;14.20;4.45;;;17.00;99.90;;;;;;5053613;28;20182;-67
2023/07/04 00:08:36;;;;;;;13.77;4.22;;;16.90;99.90;;;;;;5053465;28;20175;-67
2023/07/04 00:11:06;;;;;;;10.13;3.97;;;16.90;99.90;;;;;;5053664;28;20209;-66
2023/07/04 00:13:34;;;;;;;11.93;3.83;;;16.80;99.90;;;;;;5053619;28;20179;-67
2023/07/04 00:16:00;;;;;;;18.42;4.68;;;16.70;99.90;;;;;;5053597;28;20172;-66
2023/07/04 00:18:28;;;;;;;16.23;4.60;;;16.80;99.90;;;;;;5053221;28;20222;-67
2023/07/04 00:20:57;;;;;;;10.20;4.68;;;16.70;99.90;;;;;;5053407;28;20168;-67
2023/07/04 00:23:33;;;;;;;15.55;4.65;;;16.80;99.90;;;;;;5053250;28;20183;-66
2023/07/04 00:25:59;;;;;;;18.92;4.55;;;16.80;99.90;;;;;;5053511;28;20163;-67
2023/07/04 00:28:25;;;;;;;15.48;4.63;;;16.90;99.90;;;;;;5053445;28;20221;-66
2023/07/04 00:30:54;;;;;;;13.50;4.32;;;16.70;99.90;;;;;;5053401;28;20286;-67
2023/07/04 00:33:22;;;;;;;13.75;4.55;;;16.70;99.90;;;;;;5053265;28;20175;-66
2023/07/04 00:35:48;;;;;;;12.80;4.50;;;16.70;99.90;;;;;;5053099;28;20175;-67
2023/07/04 00:38:15;;;;;;;18.15;4.80;;;16.70;99.90;;;;;;5053152;28;20171;-66
2023/07/04 00:40:40;;;;;;;13.98;4.43;;;16.70;99.90;;;;;;5053269;28;20180;-66
2023/07/04 00:43:10;;;;;;;14.23;4.20;;;16.80;99.90;;;;;;5053273;28;20183;-67
2023/07/04 00:45:42;;;;;;;17.88;4.85;;;16.90;99.90;;;;;;5053338;28;20659;-66
2023/07/04 00:48:12;;;;;;;14.65;4.35;;;16.90;99.90;;;;;;5053097;28;20175;-66
2023/07/04 00:50:43;;;;;;;12.90;4.65;;;16.90;99.90;;;;;;5053122;28;20194;-66
2023/07/04 00:53:12;;;;;;;17.92;4.38;;;16.90;99.90;;;;;;5053202;28;20179;-67
2023/07/04 00:55:43;;;;;;;11.23;4.43;;;16.80;99.90;;;;;;5053138;28;20174;-66
2023/07/04 00:58:09;;;;;;;13.90;4.63;;;16.80;99.90;;;;;;5053036;28;20175;-66
2023/07/04 01:00:37;;;;;;;12.55;4.03;;;16.80;99.90;;;;;;5052896;28;20312;-66
2023/07/04 01:03:10;;;;;;;15.82;4.60;;;16.70;99.90;;;;;;5052940;28;20600;-67
2023/07/04 01:06:05;;;;;;;16.67;5.07;;;16.70;99.90;;;;;;5053398;28;20632;-66
2023/07/04 01:08:36;;;;;;;15.60;5.00;;;16.70;99.90;;;;;;5056411;28;20172;-67
2023/07/04 01:11:07;;;;;;;13.15;4.32;;;16.70;99.90;;;;;;5057036;28;20667;-66
2023/07/04 01:13:43;;;;;;;17.02;4.90;;;16.60;99.90;;;;;;5057185;28;20262;-66
2023/07/04 01:16:18;;;;;;;11.85;4.22;;;16.60;99.90;;;;;;5057050;28;20698;-67
2023/07/04 01:18:55;;;;;;;16.42;4.30;;;16.60;99.90;;;;;;5056961;28;20714;-66
2023/07/04 01:21:24;;;;;;;15.15;4.53;;;16.70;99.90;;;;;;5056812;28;20197;-67
2023/07/04 01:24:11;;;;;;;13.45;4.38;;;16.70;99.90;;;;;;5056607;28;20172;-66
2023/07/04 01:26:42;;;;;;;14.38;4.18;;;16.60;99.90;;;;;;5056834;28;20164;-67
2023/07/04 01:29:18;;;;;;;17.38;4.72;;;16.60;99.90;;;;;;5056650;28;20171;-68
2023/07/04 01:31:44;;;;;;;14.40;4.25;;;16.60;99.90;;;;;;5056561;28;20660;-67
2023/07/04 01:34:12;;;;;;;15.63;4.55;;;16.50;99.90;;;;;;5056458;28;20178;-66
2023/07/04 01:36:41;;;;;;;13.77;4.38;;;16.40;99.90;;;;;;5056636;28;20230;-67
2023/07/04 01:39:15;;;;;;;16.35;4.97;;;16.50;99.90;;;;;;5056580;28;20256;-67
2023/07/04 01:41:45;;;;;;;12.98;4.45;;;16.50;99.90;;;;;;5056447;28;20203;-66
2023/07/04 01:44:12;;;;;;;16.63;4.50;;;16.50;99.90;;;;;;5056344;28;20171;-66
2023/07/04 01:46:38;;;;;;;15.23;4.47;;;16.50;99.90;;;;;;5056227;28;20175;-66
2023/07/04 01:49:04;;;;;;;16.65;5.40;;;16.60;99.90;;;;;;5056472;28;20506;-66
2023/07/04 01:51:37;;;;;;;18.88;5.20;;;16.60;99.90;;;;;;5056097;28;20210;-66
2023/07/04 01:54:04;;;;;;;15.57;4.38;;;16.70;99.90;;;;;;5056282;28;20183;-66
2023/07/04 01:56:31;;;;;;;17.33;5.15;;;16.60;99.90;;;;;;5056190;28;20203;-66
2023/07/04 01:58:57;;;;;;;15.50;4.90;;;16.60;99.90;;;;;;5056107;28;20171;-67
2023/07/04 02:01:24;;;;;;;12.77;4.57;;;16.60;99.90;;;;;;5055910;28;20175;-64
2023/07/04 02:03:50;;;;;;;14.57;4.68;;;16.50;99.90;;;;;;5056138;28;20633;-66
2023/07/04 02:06:16;;;;;;;13.98;5.03;;;16.50;99.90;;;;;;5055964;28;20176;-66
2023/07/04 02:08:42;;;;;;;19.15;4.90;;;16.60;99.90;;;;;;5055830;28;20198;-66
2023/07/04 02:11:08;;;;;;;14.77;4.93;;;16.70;99.90;;;;;;5055720;28;20203;-66
2023/07/04 02:13:34;;;;;;;14.07;4.45;;;16.70;99.90;;;;;;5055675;28;20186;-65
2023/07/04 02:15:59;;;;;;;17.92;5.28;;;16.60;99.90;;;;;;5055634;28;20545;-66
2023/07/04 02:18:26;;;;;;;14.38;4.88;;;16.70;99.90;;;;;;5054317;28;20318;-66
2023/07/04 02:20:52;;;;;;;15.27;4.93;;;16.70;99.90;;;;;;5055757;28;20207;-66
2023/07/04 02:23:18;;;;;;;13.60;4.75;;;16.70;99.90;;;;;;5055660;28;20187;-66
2023/07/04 02:25:43;;;;;;;14.68;5.03;;;16.70;99.90;;;;;;5055629;28;20175;-66
2023/07/04 02:28:10;;;;;;;14.32;5.00;;;16.70;99.90;;;;;;5055437;28;20532;-65
2023/07/04 02:30:37;;;;;;;14.93;4.80;;;16.60;99.90;;;;;;5055298;28;20195;-66
2023/07/04 02:33:03;;;;;;;19.77;5.07;;;16.50;99.90;;;;;;5055657;28;20178;-66
2023/07/04 02:35:29;;;;;;;17.33;4.85;;;16.70;99.90;;;;;;5055454;28;20186;-66
2023/07/04 02:37:56;;;;;;;15.45;4.40;;;16.50;99.90;;;;;;5055252;28;20593;-66
2023/07/04 02:40:22;;;;;;;11.75;4.50;;;16.60;99.90;;;;;;5055277;28;20640;-66
2023/07/04 02:42:48;;;;;;;13.80;4.50;;;16.60;99.90;;;;;;5055066;28;20535;-66
2023/07/04 02:45:14;;;;;;;15.15;4.85;;;16.50;99.90;;;;;;5055185;28;20179;-66
2023/07/04 02:47:39;;;;;;;11.70;4.28;;;16.40;99.90;;;;;;5055108;28;20557;-66
2023/07/04 02:50:06;;;;;;;15.65;4.22;;;16.30;99.90;;;;;;5055311;28;20176;-66
2023/07/04 02:52:31;;;;;;;19.08;5.05;;;16.20;99.90;;;;;;5037185;28;20586;-66
2023/07/04 02:54:57;;;;;;;14.45;4.70;;;16.20;99.90;;;;;;5054990;28;20179;-66
2023/07/04 02:57:23;;;;;;;13.95;5.15;;;16.10;99.90;;;;;;5054938;28;20175;-65
2023/07/04 02:59:49;;;;;;;16.60;5.32;;;15.90;99.90;;;;;;5054902;28;20286;-66
2023/07/04 03:02:14;;;;;;;14.77;4.68;;;16.00;99.90;;;;;;5055026;28;20265;-66
2023/07/04 03:04:40;;;;;;;13.40;4.72;;;15.90;99.90;;;;;;5054934;28;20572;-66
2023/07/04 03:07:07;;;;;;;19.20;5.00;;;15.80;99.90;;;;;;5054820;28;20175;-66
2023/07/04 03:09:33;;;;;;;17.05;5.15;;;15.90;99.90;;;;;;5054710;28;20176;-66
2023/07/04 03:11:59;;;;;;;17.17;5.03;;;15.80;99.90;;;;;;5054510;28;20257;-65
2023/07/04 03:14:25;;;;;;;20.00;5.10;;;15.80;99.90;;;;;;5054600;28;20202;-66
2023/07/04 03:16:51;;;;;;;16.23;5.20;;;15.70;99.90;;;;;;5054586;28;20183;-66
2023/07/04 03:19:17;;;;;;;18.00;5.13;;;15.70;99.90;;;;;;5054609;28;20221;-66
2023/07/04 03:21:43;;;;;;;17.55;4.80;;;15.70;99.90;;;;;;5054565;28;20190;-66
2023/07/04 03:24:08;;;;;;;19.70;5.10;;;15.70;99.90;;;;;;5054480;28;20167;-66
2023/07/04 03:26:34;;;;;;;15.50;5.22;;;15.70;99.90;;;;;;5054305;28;20213;-66
2023/07/04 03:29:01;;;;;;;15.95;5.18;;;15.80;99.90;;;;;;5054480;28;20191;-65
2023/07/04 03:31:26;;;;;;;16.40;4.78;;;15.80;99.90;;;;;;5053994;28;20215;-66
2023/07/04 03:33:52;;;;;;;15.50;4.80;;;15.90;99.90;;;;;;5054632;28;20261;-66
2023/07/04 03:36:18;;;;;;;14.30;4.95;;;15.70;99.90;;;;;;5054202;28;20168;-66
2023/07/04 03:38:44;;;;;;;16.58;5.50;;;15.70;99.90;;;;;;5054210;28;20171;-66
2023/07/04 03:41:09;;;;;;;17.73;4.95;;;15.80;99.90;;;;;;5054066;28;20182;-65
2023/07/04 03:43:35;;;;;;;22.27;5.53;;;15.80;99.90;;;;;;5053991;28;20175;-65
2023/07/04 03:46:01;;;;;;;14.20;5.20;;;15.80;99.90;;;;;;5054187;28;20258;-66
2023/07/04 03:48:26;;;;;;;17.45;4.97;;;15.80;99.90;;;;;;5054263;28;20176;-66
2023/07/04 03:50:52;;;;;;;14.73;4.72;;;15.70;99.90;;;;;;5053959;28;20207;-66
2023/07/04 03:53:18;;;;;;;13.50;5.15;;;15.70;99.90;;;;;;5053949;28;20528;-66
2023/07/04 03:55:43;;;;;;;15.15;4.85;;;15.60;99.90;;;;;;5054109;28;20556;-66
2023/07/04 03:58:09;;;;;;;16.13;5.50;;;15.60;99.90;;;;;;5053724;28;20216;-66
2023/07/04 04:00:34;;;;;;;16.83;4.78;;;15.60;99.90;;;;;;5053940;28;20652;-65
2023/07/04 04:03:00;;;;;;;17.35;4.75;;;15.50;99.90;;;;;;5053769;28;20254;-66
2023/07/04 04:05:28;;;;;;;15.30;4.65;;;15.50;99.90;;;;;;5053699;28;20203;-66
2023/07/04 04:07:54;;;;;;;17.15;4.93;;;15.50;99.90;;;;;;5053578;28;20167;-65
2023/07/04 04:10:20;;;;;;;17.08;5.22;;;15.40;99.90;;;;;;5035796;28;20560;-66
2023/07/04 04:12:46;;;;;;;13.48;4.13;;;15.40;99.90;;;;;;5053426;28;20591;-65
2023/07/04 04:15:12;;;;;;;13.73;4.88;;;15.30;99.90;;;;;;5053644;28;20171;-65
2023/07/04 04:17:37;;;;;;;16.65;5.70;;;15.40;99.90;;;;;;5053618;28;20227;-66
2023/07/04 04:20:06;;;;;;;20.48;5.95;;;15.50;99.90;;;;;;5053411;28;20540;-65
2023/07/04 04:22:32;;;;;;;20.60;5.55;;;15.40;99.90;;;;;;5053345;28;20306;-66
2023/07/04 04:24:58;;;;;;;17.92;5.15;;;15.40;99.90;;;;;;5053242;28;20533;-66
2023/07/04 04:27:30;;;;;;;18.25;5.53;;;15.50;99.90;;;;;;5053293;28;20168;-65
2023/07/04 04:29:56;;;;;;;14.02;5.10;;;15.50;99.90;;;;;;5053434;28;20164;-66
2023/07/04 04:32:22;;;;;;;16.30;5.32;;;15.40;99.90;;;;;;5053245;28;20604;-66
2023/07/04 04:34:48;;;;;;;16.15;5.10;;;15.50;99.90;;;;;;5053249;28;20565;-65
2023/07/04 04:37:14;;;;;;;16.98;5.38;;;15.50;99.90;;;;;;5033358;28;20613;-65
2023/07/04 04:39:40;;;;;;;17.45;5.40;;;15.50;99.90;;;;;;5033179;28;20191;-66
2023/07/04 04:42:06;;;;;;;15.05;5.57;;;15.50;99.90;;;;;;5032964;28;20184;-66
2023/07/04 04:44:32;;;;;;;16.45;5.63;;;15.40;99.90;;;;;;5033316;28;20183;-65
2023/07/04 04:46:58;;;;;;;18.25;5.22;;;15.50;99.90;;;;;;5033325;28;20172;-65
2023/07/04 04:49:23;;;;;;;19.35;5.38;;;15.40;99.90;;;;;;5033265;28;20194;-65
2023/07/04 04:51:52;;;;;;;16.50;5.47;;;15.50;99.90;;;;;;5033104;28;20204;-66
2023/07/04 04:54:18;;;;;;;16.80;5.20;;;15.50;99.90;;;;;;5033071;28;20180;-65
2023/07/04 04:56:44;;;;;;;14.63;4.97;;;15.50;99.90;;;;;;5033024;28;20238;-66
2023/07/04 04:59:11;;;;;;;15.43;5.22;;;15.60;99.90;;;;;;5033188;28;20187;-66
2023/07/04 05:01:37;;;;;;;17.20;5.50;;;15.60;99.90;;;;;;5033112;28;20188;-65
2023/07/04 05:04:04;;;;;;;18.25;5.15;;;15.70;99.90;;;;;;5033111;28;20171;-61
2023/07/04 05:06:30;;;;;;;15.32;5.60;;;15.70;99.90;;;;;;5032979;28;20583;-60
2023/07/04 05:08:55;;;;;;;15.70;5.22;;;15.70;99.90;;;;;;5032952;28;20183;-61
2023/07/04 05:11:21;;;;;;;20.35;5.57;;;15.80;99.90;;;;;;5033062;28;20207;-61
2023/07/04 05:13:48;;;;;;;15.05;5.25;;;15.80;99.90;;;;;;5033089;28;20180;-60
2023/07/04 05:16:19;;;;;;;17.10;5.47;;;15.90;99.90;;;;;;5032955;28;20267;-60
2023/07/04 05:18:46;;;;;;;16.23;4.97;;;15.90;99.90;;;;;;5032927;28;20220;-60
2023/07/04 05:21:14;;;;;;;19.27;5.85;;;16.00;99.90;;;;;;5032791;28;20195;-60
2023/07/04 05:23:43;;;;;;;14.52;4.90;;;16.00;99.90;;;;;;5032701;28;20180;-61
2023/07/04 05:26:11;;;;;;;16.58;5.05;;;16.10;99.90;;;;;;5033019;28;20183;-61
2023/07/04 05:28:38;;;;;;;14.68;5.03;;;16.20;99.90;;;;;;5032907;28;20207;-60
2023/07/04 05:31:07;;;;;;;19.13;5.07;;;16.10;99.90;;;;;;5032727;28;20230;-61
2023/07/04 05:33:33;;;;;;;15.43;5.45;;;16.30;99.90;;;;;;5032782;28;20526;-60
2023/07/04 05:36:23;;;;;;;19.08;5.18;;;16.30;99.90;;;;;;5032588;28;20168;-60
2023/07/04 05:38:54;;;;;;;15.52;4.72;;;16.30;99.90;;;;;;5032928;28;20514;-60
2023/07/04 05:41:27;;;;;;;15.65;4.88;;;16.30;99.90;;;;;;5033152;28;20591;-60
2023/07/04 05:43:57;;;;;;;13.15;4.40;;;16.40;99.90;;;;;;5032786;28;20622;-60
2023/07/04 05:46:23;;;;;;;14.98;4.88;;;16.50;99.90;;;;;;5032552;28;20183;-60
2023/07/04 05:48:49;;;;;;;15.05;5.03;;;16.50;99.90;;;;;;5032739;28;20168;-60
2023/07/04 05:51:16;;;;;;;12.77;4.43;;;16.70;99.90;;;;;;5032647;28;20253;-60
2023/07/04 05:53:46;;;;;;;16.10;4.93;;;16.80;99.90;;;;;;5034547;28;20179;-60
2023/07/04 05:56:14;;;;;;;13.00;4.55;;;16.80;99.90;;;;;;5036289;28;20176;-61
2023/07/04 05:58:42;;;;;;;15.38;4.57;;;16.90;99.90;;;;;;5036141;28;20661;-60
2023/07/04 06:01:18;;;;;;;13.35;4.05;;;17.00;99.90;;;;;;5036011;28;20226;-61
2023/07/04 06:03:44;;;;;;;12.60;4.13;;;17.00;99.90;;;;;;5036119;28;20629;-61
2023/07/04 06:06:22;;;;;;;14.52;4.30;;;17.10;99.90;;;;;;5036089;28;20227;-60
2023/07/04 06:08:49;;;;;;;9.80;4.10;;;17.20;99.90;;;;;;5036125;28;20179;-60
2023/07/04 06:11:15;;;;;;;14.15;4.10;;;17.20;99.90;;;;;;5035838;28;20200;-60
2023/07/04 06:13:41;;;;;;;12.15;3.63;;;17.40;99.90;;;;;;5035792;28;20180;-60
2023/07/04 06:16:07;;;;;;;10.35;3.80;;;17.30;99.90;;;;;;5035986;28;20183;-60
2023/07/04 06:18:33;;;;;;;13.70;4.00;;;17.30;99.90;;;;;;5035483;28;20263;-60
2023/07/04 06:21:13;;;;;;;11.60;3.92;;;17.40;99.90;;;;;;5035803;28;20175;-60
2023/07/04 06:23:39;;;;;;;11.52;3.80;;;17.50;99.90;;;;;;5035751;28;20246;-60
2023/07/04 06:26:06;;;;;;;11.77;3.30;;;17.60;99.90;;;;;;5035550;28;20172;-60
2023/07/04 06:28:33;;;;;;;10.90;3.58;;;17.70;99.90;;;;;;5035587;28;20183;-60
2023/07/04 06:31:01;;;;;;;11.02;4.13;;;17.70;99.90;;;;;;5035635;28;20282;-60
2023/07/04 06:33:27;;;;;;;11.30;3.17;;;17.70;99.90;;;;;;5035596;28;20191;-60
2023/07/04 06:35:52;;;;;;;10.88;3.35;;;17.90;99.90;;;;;;5035558;28;20177;-61
2023/07/04 06:38:20;;;;;;;13.55;3.65;;;18.10;99.90;;;;;;5035364;28;20645;-61
2023/07/04 06:40:58;;;;;;;8.82;3.25;;;18.20;99.90;;;;;;5035365;28;20633;-61
2023/07/04 06:43:28;;;;;;;11.80;3.95;;;18.50;99.90;;;;;;5035628;28;20176;-61
2023/07/04 06:45:55;;;;;;;9.52;3.05;;;18.50;99.90;;;;;;5035515;28;20175;-60
2023/07/04 06:48:22;;;;;;;11.65;3.40;;;18.50;99.90;;;;;;5035166;28;20540;-60
2023/07/04 06:50:58;;;;;;;7.72;2.90;;;18.30;99.90;;;;;;5035108;28;20203;-61
2023/07/04 06:53:24;;;;;;;7.00;2.83;;;18.20;99.90;;;;;;5035098;28;20652;-61
2023/07/04 06:55:50;;;;;;;10.52;3.08;;;18.00;99.90;;;;;;5035181;28;20230;-61
2023/07/04 06:58:16;;;;;;;8.02;3.05;;;18.10;99.90;;;;;;5035238;28;20180;-60
2023/07/04 07:00:42;;;;;;;8.98;2.95;;;18.10;99.90;;;;;;5035070;28;20184;-60
2023/07/04 07:03:07;;;;;;;8.20;3.08;;;18.20;99.90;;;;;;5034966;28;20571;-60
2023/07/04 07:05:41;;;;;;;7.65;2.65;;;18.30;99.90;;;;;;5034175;28;20184;-61
2023/07/04 07:08:07;;;;;;;9.20;2.80;;;18.40;99.90;;;;;;5035126;28;20200;-61
2023/07/04 07:10:36;;;;;;;9.38;3.05;;;18.50;99.90;;;;;;5034739;28;20231;-61
2023/07/04 07:13:03;;;;;;;11.27;3.22;;;18.60;99.90;;;;;;5035091;28;20262;-61
2023/07/04 07:15:29;;;;;;;6.90;2.40;;;18.70;99.90;;;;;;5034858;28;20199;-61
2023/07/04 07:17:56;;;;;;;10.70;2.80;;;18.80;99.90;;;;;;5034772;28;20247;-61
2023/07/04 07:20:22;;;;;;;6.22;2.20;;;18.90;99.90;;;;;;5034807;28;20243;-60
2023/07/04 07:22:47;;;;;;;11.75;2.72;;;18.90;99.90;;;;;;5034652;28;20184;-60
2023/07/04 07:25:13;;;;;;;5.22;2.35;;;19.00;99.90;;;;;;5034630;28;20180;-60
2023/07/04 07:27:39;;;;;;;9.80;2.50;;;19.20;99.90;;;;;;5034535;28;20264;-60
2023/07/04 07:30:05;;;;;;;8.52;2.60;;;19.30;99.90;;;;;;5034388;28;20183;-61
2023/07/04 07:32:31;;;;;;;9.38;2.85;;;19.50;99.90;;;;;;5034273;28;20196;-61
2023/07/04 07:34:56;;;;;;;6.75;2.08;;;19.50;99.90;;;;;;5034265;28;20180;-60
2023/07/04 07:37:23;;;;;;;6.28;2.47;;;19.40;99.90;;;;;;5034501;28;20258;-61
2023/07/04 07:39:51;;;;;;;8.55;2.70;;;19.50;99.90;;;;;;5034395;28;20261;-61
2023/07/04 07:42:17;;;;;;;9.40;3.10;;;19.60;99.90;;;;;;5034262;28;20191;-61
2023/07/04 07:44:43;;;;;;;7.15;2.17;;;19.60;99.90;;;;;;5034176;28;20526;-61
2023/07/04 07:47:10;;;;;;;6.80;2.38;;;19.80;99.90;;;;;;5034100;28;20183;-60
2023/07/04 07:49:37;;;;;;;7.93;2.50;;;19.80;99.90;;;;;;5033990;28;20207;-60
2023/07/04 07:52:03;;;;;;;9.48;3.10;;;20.00;99.90;;;;;;5034065;28;20286;-61
2023/07/04 07:54:28;;;;;;;8.32;2.95;;;20.00;99.90;;;;;;5034146;28;20180;-60
2023/07/04 07:56:54;;;;;;;9.23;2.78;;;20.10;99.90;;;;;;5034116;28;20180;-60
2023/07/04 07:59:21;;;;;;;5.68;2.70;;;20.20;99.90;;;;;;5033969;28;20586;-61
2023/07/04 08:01:47;;;;;;;9.63;2.72;;;20.40;99.90;;;;;;5033797;28;20180;-61
2023/07/04 08:04:14;;;;;;;8.00;2.50;;;20.40;99.90;;;;;;5033738;28;20191;-61
2023/07/04 08:06:42;;;;;;;10.13;2.67;;;20.30;99.90;;;;;;5033974;28;20680;-60
2023/07/04 08:09:10;;;;;;;7.47;2.60;;;20.10;99.90;;;;;;5033824;28;20657;-61
2023/07/04 08:11:37;;;;;;;7.57;2.33;;;20.00;99.90;;;;;;5033470;28;20677;-61
2023/07/04 08:14:03;;;;;;;6.25;2.50;;;20.00;99.90;;;;;;5033557;28;20189;-61
2023/07/04 08:16:39;;;;;;;9.10;2.80;;;20.10;99.90;;;;;;5032562;28;20258;-61
2023/07/04 08:19:05;;;;;;;8.07;2.90;;;20.30;99.90;;;;;;5033879;28;20554;-61
2023/07/04 08:21:30;;;;;;;7.13;2.60;;;20.40;99.90;;;;;;5033623;28;20191;-61
2023/07/04 08:23:56;;;;;;;6.90;2.65;;;20.60;99.90;;;;;;5033613;28;20180;-61
2023/07/04 08:26:24;;;;;;;9.23;2.50;;;20.80;99.90;;;;;;5033687;28;20182;-61
2023/07/04 08:28:53;;;;;;;4.97;2.60;;;20.80;99.90;;;;;;5033381;28;20176;-61
2023/07/04 08:31:20;;;;;;;8.15;2.50;;;20.70;99.90;;;;;;5033297;28;20211;-61
2023/07/04 08:33:46;;;;;;;8.57;2.88;;;20.60;99.90;;;;;;5033272;28;20281;-61
2023/07/04 08:36:13;;;;;;;8.52;2.47;;;20.90;99.90;;;;;;5033523;28;20172;-61
2023/07/04 08:38:38;;;;;;;6.80;2.75;;;21.20;99.90;;;;;;5033298;28;20176;-61
2023/07/04 08:41:21;;;;;;;4.60;2.03;;;20.90;99.90;;;;;;5033460;28;20183;-62
2023/07/04 08:43:53;;;;;;;7.30;2.35;;;20.80;99.90;;;;;;5033149;28;20172;-61
2023/07/04 08:46:20;;;;;;;7.40;2.38;;;21.00;99.90;;;;;;5033435;28;20172;-61
2023/07/04 08:48:46;;;;;;;7.80;2.90;;;21.20;99.90;;;;;;5033284;28;20168;-61
2023/07/04 08:51:20;;;;;;;6.90;2.05;;;21.20;99.90;;;;;;5033106;28;20302;-61
2023/07/04 08:53:53;;;;;;;6.40;2.28;;;21.40;99.90;;;;;;5033267;28;20645;-61
2023/07/04 08:56:27;;;;;;;9.13;2.53;;;21.20;99.90;;;;;;5033124;28;20207;-61
2023/07/04 08:59:24;;;;;;;6.97;2.10;;;21.20;99.90;;;;;;5033175;28;20172;-61
2023/07/04 09:01:58;;;;;;;6.70;2.30;;;21.30;99.90;;;;;;5015579;28;20266;-61
2023/07/04 09:04:31;;;;;;;5.93;2.30;;;21.30;99.90;;;;;;5033196;28;20170;-61
2023/07/04 09:07:14;;;;;;;7.65;3.17;;;21.50;99.90;;;;;;5033389;28;20255;-61
2023/07/04 09:10:21;;;;;;;5.72;2.17;;;21.60;99.90;;;;;;5033349;28;20230;-61
2023/07/04 09:12:48;;;;;;;9.48;2.17;;;21.70;99.90;;;;;;5028039;28;20630;-61
2023/07/04 09:15:33;;;;;;;7.53;2.63;;;21.60;99.90;;;;;;5015270;28;20538;-61
2023/07/04 09:18:08;;;;;;;6.70;2.50;;;21.60;99.90;;;;;;5032724;28;20223;-61
2023/07/04 09:20:42;;;;;;;8.20;2.50;;;21.80;99.90;;;;;;5032834;28;20637;-61
2023/07/04 09:23:14;;;;;;;7.38;2.55;;;22.00;99.90;;;;;;5032844;28;20538;-61
2023/07/04 09:25:41;;;;;;;13.45;2.70;;;21.90;99.90;;;;;;5015056;28;20177;-61
2023/07/04 09:28:07;;;;;;;7.97;2.60;;;21.90;99.90;;;;;;5034041;28;20225;-61
2023/07/04 09:30:33;;;;;;;7.68;2.50;;;21.90;99.90;;;;;;5036663;28;20253;-61
2023/07/04 09:32:59;;;;;;;6.25;2.60;;;22.10;99.90;;;;;;5036698;28;20180;-61
2023/07/04 09:35:25;;;;;;;6.05;2.40;;;22.20;99.90;;;;;;5036651;28;20183;-61
2023/07/04 09:37:55;;;;;;;7.00;2.28;;;22.30;99.90;;;;;;5036476;28;20252;-61
2023/07/04 09:40:41;;;;;;;4.47;2.25;;;22.40;99.90;;;;;;5036657;28;20199;-60
2023/07/04 09:43:07;;;;;;;5.28;2.42;;;22.30;99.90;;;;;;5036582;28;20532;-60
2023/07/04 09:45:33;;;;;;;5.55;2.10;;;22.30;99.90;;;;;;5036516;28;20579;-60
2023/07/04 09:47:59;;;;;;;5.65;2.55;;;21.90;99.70;;;;;;5036397;28;20168;-60
2023/07/04 09:50:29;;;;;;;7.45;2.60;;;22.00;99.90;;;;;;5036163;28;20641;-60
2023/07/04 09:53:16;;;;;;;7.07;2.47;;;22.10;99.90;;;;;;5036380;28;20177;-60
2023/07/04 09:56:00;;;;;;;7.05;2.58;;;22.10;99.90;;;;;;5036466;28;20583;-60
2023/07/04 09:58:28;;;;;;;6.78;2.40;;;21.80;99.90;;;;;;5036174;28;20637;-60
2023/07/04 10:01:08;;;;;;;6.60;2.22;;;21.90;99.90;;;;;;5036003;28;20657;-61
2023/07/04 10:03:38;;;;;;;6.80;2.50;;;21.80;99.00;;;;;;5036175;28;20551;-60
2023/07/04 10:06:05;;;;;;;7.32;2.38;;;21.80;99.00;;;;;;5036212;28;20187;-61
2023/07/04 10:08:32;;;;;;;8.70;2.50;;;21.60;99.80;;;;;;5035976;28;20294;-60
2023/07/04 10:10:58;;;;;;;8.40;2.85;;;21.80;99.90;;;;;;5035711;28;20657;-60
2023/07/04 10:13:33;;;;;;;7.50;2.72;;;22.10;99.80;;;;;;5035845;28;20187;-60
2023/07/04 10:15:59;;;;;;;9.93;2.38;;;21.90;99.70;;;;;;5036025;28;20176;-60
2023/07/04 10:18:26;;;;;;;7.00;2.80;;;21.80;99.90;;;;;;5035705;28;20227;-61
2023/07/04 10:20:57;;;;;;;8.38;2.75;;;21.90;99.90;;;;;;5035857;28;20262;-60
2023/07/04 10:23:24;;;;;;;10.00;3.00;;;21.80;99.90;;;;;;5035776;28;20172;-60
2023/07/04 10:25:51;;;;;;;6.25;2.70;;;22.00;99.90;;;;;;5035626;28;20533;-60
2023/07/04 10:28:19;;;;;;;8.82;2.95;;;22.30;99.90;;;;;;5035475;28;20625;-61
2023/07/04 10:30:49;;;;;;;5.45;2.60;;;22.10;99.90;;;;;;5035657;28;20609;-60
2023/07/04 10:33:37;;;;;;;9.90;2.80;;;22.20;99.90;;;;;;5035898;28;20668;-60
2023/07/04 10:36:04;;;;;;;9.48;3.40;;;22.40;99.90;;;;;;5019847;28;20188;-60
2023/07/04 10:38:38;;;;;;;7.95;2.92;;;22.20;99.90;;;;;;5035317;28;20183;-61
2023/07/04 10:41:26;;;;;;;8.52;3.30;;;22.30;99.90;;;;;;5016715;28;20175;-61
2023/07/04 10:44:00;;;;;;;6.97;3.05;;;22.30;99.90;;;;;;5035424;28;20175;-61
2023/07/04 10:46:29;;;;;;;7.40;3.47;;;22.00;99.90;;;;;;5035364;28;20522;-62
2023/07/04 10:49:04;;;;;;;8.88;3.45;;;22.20;99.90;;;;;;5035118;28;20172;-61
2023/07/04 10:51:35;;;;;;;10.55;3.63;;;22.10;99.90;;;;;;5035297;28;20233;-61
2023/07/04 10:54:00;;;;;;;10.48;3.65;;;22.30;99.90;;;;;;5035312;28;20242;-61
2023/07/04 10:56:33;;;;;;;8.98;3.50;;;22.60;99.90;;;;;;5035190;28;20669;-61
2023/07/04 10:59:12;;;;;;;8.80;3.65;;;22.70;99.90;;;;;;5034953;28;20172;-61
2023/07/04 11:01:41;;;;;;;8.43;3.60;;;22.80;99.90;;;;;;5034917;28;20179;-61
2023/07/04 11:04:22;;;;;;;9.93;3.40;;;23.00;99.90;;;;;;5035100;28;20234;-61
2023/07/04 11:06:58;;;;;;;7.40;3.95;;;23.30;99.90;;;;;;5034966;28;20219;-61
2023/07/04 11:09:26;;;;;;;7.90;3.15;;;23.00;99.90;;;;;;5034976;28;20179;-61
2023/07/04 11:11:52;;;;;;;8.75;3.53;;;23.00;99.90;;;;;;5034650;28;20695;-61
2023/07/04 11:14:24;;;;;;;9.35;3.75;;;22.90;99.90;;;;;;5034849;28;20188;-61
2023/07/04 11:16:54;;;;;;;8.35;4.00;;;22.60;99.90;;;;;;5034648;28;20190;-60
2023/07/04 11:19:25;;;;;;;7.53;3.33;;;22.50;99.90;;;;;;5034688;28;20172;-61
2023/07/04 11:22:03;;;;;;;8.98;3.47;;;22.30;99.90;;;;;;5034498;28;20671;-61
2023/07/04 11:24:32;;;;;;;8.23;4.05;;;22.80;99.90;;;;;;5034486;28;20179;-61
2023/07/04 11:27:09;;;;;;;10.38;4.03;;;23.20;99.90;;;;;;5034683;28;20168;-61
2023/07/04 11:29:46;;;;;;;9.32;4.18;;;23.10;99.90;;;;;;5034543;28;20170;-61
2023/07/04 11:32:17;;;;;;;9.10;3.58;;;22.90;99.90;;;;;;5034359;28;20207;-61
2023/07/04 11:34:44;;;;;;;8.65;3.53;;;23.30;99.90;;;;;;5034304;28;20526;-61
2023/07/04 11:37:14;;;;;;;9.63;3.67;;;23.40;99.60;;;;;;5034418;28;20176;-61
2023/07/04 11:39:40;;;;;;;9.93;3.72;;;23.60;99.90;;;;;;5034368;28;20263;-61
2023/07/04 11:42:19;;;;;;;7.75;3.35;;;23.50;99.90;;;;;;5034319;28;20180;-61
2023/07/04 11:44:57;;;;;;;9.80;3.58;;;23.50;99.80;;;;;;5034163;28;20660;-61
2023/07/04 11:47:37;;;;;;;9.80;3.60;;;23.70;98.60;;;;;;5034034;28;20533;-61
2023/07/04 11:50:10;;;;;;;9.23;3.78;;;23.90;98.90;;;;;;5034137;28;20720;-61
2023/07/04 11:52:41;;;;;;;6.32;3.25;;;24.00;99.30;;;;;;5033955;28;20188;-61
2023/07/04 11:55:16;;;;;;;9.55;3.85;;;23.80;99.60;;;;;;5033997;28;20538;-61
2023/07/04 11:57:55;;;;;;;9.05;3.55;;;23.50;99.90;;;;;;5033765;28;20325;-61
2023/07/04 12:00:44;;;;;;;6.50;3.47;;;23.60;99.90;;;;;;5034276;28;20283;-61
2023/07/04 12:03:21;;;;;;;7.78;3.35;;;23.60;98.00;;;;;;5020852;28;20534;-61
2023/07/04 12:05:58;;;;;;;8.55;3.40;;;23.70;99.20;;;;;;5033809;28;20254;-61
2023/07/04 12:08:49;;;;;;;7.43;3.22;;;23.70;98.80;;;;;;5033988;28;20176;-61
2023/07/04 12:11:21;;;;;;;7.72;2.90;;;23.70;98.30;;;;;;5033782;28;20642;-61
2023/07/04 12:13:49;;;;;;;6.90;3.25;;;23.70;97.90;;;;;;5033791;28;20175;-61
2023/07/04 12:16:19;;;;;;;6.85;3.55;;;23.80;98.60;;;;;;5033561;28;20180;-61
2023/07/04 12:18:45;;;;;;;7.53;3.13;;;24.00;98.40;;;;;;5033466;28;20219;-61
2023/07/04 12:21:20;;;;;;;6.50;3.63;;;24.00;98.30;;;;;;5033464;28;20235;-61
2023/07/04 12:23:46;;;;;;;10.50;4.00;;;23.80;98.80;;;;;;5033642;28;20171;-61
2023/07/04 12:26:21;;;;;;;8.30;3.78;;;23.70;98.10;;;;;;5033472;28;20184;-61
2023/07/04 12:28:47;;;;;;;7.35;3.80;;;23.60;98.40;;;;;;5033404;28;20564;-62
2023/07/04 12:31:14;;;;;;;7.40;3.72;;;23.50;98.20;;;;;;5033571;28;20211;-62
2023/07/04 12:33:44;;;;;;;6.53;4.18;;;23.40;99.20;;;;;;5033449;28;20183;-62
2023/07/04 12:36:14;;;;;;;8.93;3.80;;;23.40;98.70;;;;;;5033374;28;20219;-61
2023/07/04 12:38:53;;;;;;;6.53;3.78;;;23.40;99.00;;;;;;5033305;28;20642;-62
2023/07/04 12:41:21;;;;;;;10.98;4.38;;;23.40;99.40;;;;;;5033339;28;20188;-61
2023/07/04 12:43:55;;;;;;;7.90;3.60;;;23.40;98.80;;;;;;5033663;28;20683;-62
2023/07/04 12:46:22;;;;;;;9.52;3.97;;;23.50;99.90;;;;;;5033588;28;20176;-62
2023/07/04 12:48:48;;;;;;;8.95;4.25;;;23.40;98.80;;;;;;5033174;28;20180;-62
2023/07/04 12:51:20;;;;;;;8.23;3.97;;;23.40;98.80;;;;;;5033195;28;20203;-61